Time;durP1;ratioP1;P1;durP2;ratioP2;P2;SDS_P1;SDS_P2;PMS_P1;PMS_P2;Temp;Humidity;BMP_temperature;BMP_pressure;BME280_temperature;BME280_humidity;BME280_pressure;Samples;Min_cycle;Max_cycle;Signal;HPM_P1;HPM_P2
2021/11/25 00:01:56;;;;;;;;;24.00;20.25;;;;;9.42;97.88;101022.88;5016747;28;45327;-78
2021/11/25 00:04:22;;;;;;;;;20.00;19.25;;;;;9.36;98.04;101015.69;5016108;28;45312;-75
2021/11/25 00:06:47;;;;;;;;;22.75;19.75;;;;;9.38;98.12;101018.34;5016295;28;45240;-75
2021/11/25 00:09:13;;;;;;;;;19.00;18.50;;;;;9.43;98.32;101022.06;5016869;28;45377;-75
2021/11/25 00:11:39;;;;;;;;;19.25;18.75;;;;;9.45;97.41;101021.34;5016198;28;46064;-75
2021/11/25 00:14:05;;;;;;;;;22.00;19.50;;;;;9.41;97.09;101015.94;5016556;28;45491;-75
2021/11/25 00:16:31;;;;;;;;;20.75;19.00;;;;;9.39;97.01;101013.28;5016298;28;45815;-75
2021/11/25 00:18:57;;;;;;;;;25.75;21.00;;;;;9.35;97.27;101013.91;5016850;28;45323;-74
2021/11/25 00:21:23;;;;;;;;;18.25;17.75;;;;;9.32;97.47;101013.72;5016004;28;45332;-76
2021/11/25 00:23:54;;;;;;;;;18.25;18.25;;;;;9.27;97.48;101005.75;5016514;28;45414;-76
2021/11/25 00:26:19;;;;;;;;;27.00;20.75;;;;;9.26;97.60;101016.88;5017275;28;45256;-74
2021/11/25 00:28:46;;;;;;;;;25.00;22.50;;;;;9.03;98.51;100966.59;5017051;28;45351;-74
2021/11/25 00:31:12;;;;;;;;;24.00;19.50;;;;;9.08;99.17;100984.91;5016070;28;46090;-76
2021/11/25 00:33:39;;;;;;;;;23.50;18.00;;;;;9.07;99.74;100978.84;5015526;28;45302;-77
2021/11/25 00:36:05;;;;;;;;;22.00;20.00;;;;;9.15;100.00;100984.41;5015997;28;45395;-73
2021/11/25 00:38:31;;;;;;;;;22.00;17.75;;;;;9.19;100.00;100981.19;5016062;28;45403;-74
2021/11/25 00:40:56;;;;;;;;;20.50;19.00;;;;;9.22;100.00;100990.78;5016214;28;46003;-75
2021/11/25 00:43:22;;;;;;;;;21.25;20.00;;;;;9.23;100.00;100984.81;5015858;28;45356;-75
2021/11/25 00:45:49;;;;;;;;;19.25;19.25;;;;;9.17;100.00;100976.78;5015930;28;45299;-75
2021/11/25 00:48:15;;;;;;;;;24.00;22.25;;;;;9.25;100.00;100981.50;5016358;28;45252;-75
2021/11/25 00:50:40;;;;;;;;;28.75;22.50;;;;;9.21;99.28;100982.19;5015481;28;45391;-75
2021/11/25 00:53:06;;;;;;;;;23.00;20.75;;;;;9.10;99.62;100970.38;5015585;28;45320;-76
2021/11/25 00:55:32;;;;;;;;;20.75;20.50;;;;;9.20;99.19;100995.00;5015755;28;45316;-74
2021/11/25 00:57:58;;;;;;;;;24.50;18.00;;;;;9.12;98.89;100971.34;5016237;28;45305;-74
2021/11/25 01:00:24;;;;;;;;;22.50;22.50;;;;;9.07;99.09;100962.47;5017381;28;45852;-75
2021/11/25 01:02:50;;;;;;;;;19.50;19.50;;;;;9.14;99.25;100977.47;5019038;28;45418;-74
2021/11/25 01:05:18;;;;;;;;;21.25;19.50;;;;;9.08;98.80;100972.88;5019805;28;45362;-74
2021/11/25 01:07:45;;;;;;;;;22.50;18.25;;;;;9.12;97.81;100990.31;5020630;28;45316;-75
2021/11/25 01:10:15;;;;;;;;;20.00;19.50;;;;;9.09;98.08;100990.13;5019402;28;45980;-74
2021/11/25 01:12:42;;;;;;;;;24.25;22.50;;;;;9.10;98.31;100996.22;5019041;28;45857;-74
2021/11/25 01:15:09;;;;;;;;;22.00;21.75;;;;;9.03;98.02;100982.06;5019249;28;45263;-77
2021/11/25 01:17:39;;;;;;;;;21.50;19.75;;;;;9.08;98.29;100992.66;5019322;28;45501;-75
2021/11/25 01:20:12;;;;;;;;;21.00;19.50;;;;;9.05;97.64;100989.91;5019139;28;45248;-74
2021/11/25 01:22:38;;;;;;;;;18.50;16.25;;;;;9.00;97.45;100988.78;5018700;28;45332;-76
2021/11/25 01:25:05;;;;;;;;;21.25;18.75;;;;;8.98;97.87;100989.59;5018950;28;45332;-74
2021/11/25 01:27:31;;;;;;;;;19.75;18.50;;;;;8.97;97.75;100990.38;5019123;28;45531;-73
2021/11/25 01:29:56;;;;;;;;;23.50;19.50;;;;;9.00;97.13;100991.34;5019022;28;45209;-73
2021/11/25 01:32:22;;;;;;;;;25.25;17.75;;;;;9.01;97.11;100991.44;5018778;28;45424;-74
2021/11/25 01:34:48;;;;;;;;;24.25;19.50;;;;;9.04;97.45;100985.53;5018693;28;45455;-73
2021/11/25 01:37:14;;;;;;;;;19.00;18.25;;;;;9.04;96.87;100980.38;5019240;28;45542;-74
2021/11/25 01:39:39;;;;;;;;;18.25;17.25;;;;;9.04;96.86;100978.69;5017777;28;45213;-73
2021/11/25 01:42:05;;;;;;;;;20.00;20.00;;;;;9.05;95.64;100983.06;5018650;28;45269;-73
2021/11/25 01:44:30;;;;;;;;;22.75;20.25;;;;;9.02;96.76;100971.66;5018534;28;45354;-76
2021/11/25 01:47:01;;;;;;;;;19.75;18.50;;;;;9.01;95.40;100962.16;5019448;28;45549;-75
2021/11/25 01:49:27;;;;;;;;;24.25;21.00;;;;;9.06;95.09;100982.25;5001549;28;46167;-75
2021/11/25 01:51:53;;;;;;;;;20.50;19.25;;;;;9.01;94.33;100970.78;5018576;28;45301;-75
2021/11/25 01:54:18;;;;;;;;;18.25;18.25;;;;;9.05;94.41;100980.47;5018682;28;45407;-74
2021/11/25 01:56:45;;;;;;;;;23.00;17.00;;;;;9.05;93.28;100974.41;5018581;28;45410;-74
2021/11/25 01:59:10;;;;;;;;;21.25;17.00;;;;;9.04;94.18;100982.94;5000620;28;47681;-74
2021/11/25 02:01:36;;;;;;;;;19.50;17.75;;;;;9.03;93.18;100981.16;5018084;28;45444;-75
2021/11/25 02:04:04;;;;;;;;;21.00;17.50;;;;;9.02;93.75;100985.47;5018289;28;45381;-75
2021/11/25 02:06:30;;;;;;;;;19.75;17.25;;;;;9.01;94.21;100977.66;5018507;28;45331;-75
2021/11/25 02:08:56;;;;;;;;;17.50;17.50;;;;;9.08;92.90;100984.91;5017832;28;45491;-75
2021/11/25 02:11:21;;;;;;;;;19.00;14.25;;;;;9.08;92.54;100987.50;5017332;28;45330;-74
2021/11/25 02:13:47;;;;;;;;;15.75;15.50;;;;;9.07;91.64;100977.97;5021811;28;45254;-74
2021/11/25 02:16:13;;;;;;;;;14.50;12.25;;;;;9.09;91.72;100974.66;5018508;28;45248;-74
2021/11/25 02:18:39;;;;;;;;;19.00;16.25;;;;;9.05;91.60;100967.56;5017956;28;46536;-74
2021/11/25 02:21:05;;;;;;;;;19.25;16.75;;;;;9.12;91.22;100973.94;5017701;28;45258;-74
2021/11/25 02:23:31;;;;;;;;;13.50;12.00;;;;;9.12;91.13;100966.19;5018026;28;45419;-75
2021/11/25 02:25:58;;;;;;;;;12.25;9.50;;;;;9.18;90.71;100969.09;5018277;28;45349;-74
2021/11/25 02:28:29;;;;;;;;;13.25;12.00;;;;;9.18;90.07;100966.50;5018276;28;45453;-74
2021/11/25 02:30:54;;;;;;;;;16.50;13.75;;;;;9.18;90.81;100961.34;5017893;28;45248;-74
2021/11/25 02:33:20;;;;;;;;;12.00;11.00;;;;;9.21;90.68;100966.69;5018958;28;45509;-74
2021/11/25 02:35:46;;;;;;;;;12.00;11.00;;;;;9.15;90.70;100948.25;5000632;28;45293;-75
2021/11/25 02:38:12;;;;;;;;;14.25;14.25;;;;;9.26;91.00;100962.63;4999595;28;48139;-76
2021/11/25 02:40:45;;;;;;;;;16.75;12.00;;;;;9.24;90.72;100956.47;5017502;28;45945;-74
2021/11/25 02:43:16;;;;;;;;;12.00;10.75;;;;;9.21;90.78;100964.09;5017920;28;45355;-74
2021/11/25 02:45:45;;;;;;;;;12.75;12.50;;;;;9.23;91.47;100964.16;5017187;28;45640;-74
2021/11/25 02:48:12;;;;;;;;;14.50;13.25;;;;;9.17;91.55;100953.53;4999792;28;46192;-75
2021/11/25 02:50:38;;;;;;;;;14.00;11.75;;;;;9.18;91.62;100947.53;5017337;28;45400;-74
2021/11/25 02:53:04;;;;;;;;;12.00;12.00;;;;;9.20;91.89;100957.16;5017344;28;45446;-75
2021/11/25 02:55:30;;;;;;;;;12.50;12.50;;;;;9.20;92.28;100956.25;5017454;28;45289;-74
2021/11/25 02:57:55;;;;;;;;;17.75;16.00;;;;;9.15;92.41;100956.00;5017777;28;45334;-74
2021/11/25 03:00:21;;;;;;;;;15.25;13.00;;;;;9.13;93.88;100958.50;4999485;28;45459;-74
2021/11/25 03:02:53;;;;;;;;;12.25;12.25;;;;;9.02;94.79;100938.97;5016992;28;45500;-75
2021/11/25 03:05:18;;;;;;;;;14.25;13.00;;;;;9.07;96.30;100960.75;5017659;28;45320;-74
2021/11/25 03:07:44;;;;;;;;;19.00;17.00;;;;;9.06;97.11;100945.19;5016554;28;46083;-73
2021/11/25 03:10:10;;;;;;;;;23.50;17.50;;;;;9.00;98.00;100942.28;4998975;28;45388;-75
2021/11/25 03:12:35;;;;;;;;;16.25;15.25;;;;;9.05;98.49;100948.56;5017163;28;45298;-74
2021/11/25 03:15:01;;;;;;;;;19.50;16.50;;;;;9.06;98.92;100950.34;5000183;28;45317;-76
2021/11/25 03:17:27;;;;;;;;;16.00;15.00;;;;;9.08;99.35;100953.91;5017895;28;45930;-77
2021/11/25 03:19:52;;;;;;;;;21.75;16.50;;;;;9.03;99.97;100942.44;4998830;28;45372;-74
2021/11/25 03:22:18;;;;;;;;;20.00;18.25;;;;;9.00;100.00;100940.59;5016194;28;45546;-74
2021/11/25 03:24:43;;;;;;;;;20.75;16.00;;;;;9.05;100.00;100956.31;5016976;28;45295;-74
2021/11/25 03:27:09;;;;;;;;;20.50;17.25;;;;;8.94;100.00;100930.81;5016790;28;45781;-74
2021/11/25 03:29:35;;;;;;;;;20.75;16.25;;;;;9.01;100.00;100932.03;5016163;28;45601;-75
2021/11/25 03:32:00;;;;;;;;;22.75;19.00;;;;;9.07;100.00;100942.69;5017281;28;45443;-74
2021/11/25 03:34:26;;;;;;;;;21.75;18.50;;;;;9.10;100.00;100949.72;5017375;28;45548;-74
2021/11/25 03:36:51;;;;;;;;;26.75;21.00;;;;;8.95;100.00;100921.38;5016154;28;45491;-74
2021/11/25 03:39:17;;;;;;;;;24.00;18.75;;;;;9.12;100.00;100942.94;5016692;28;45344;-74
2021/11/25 03:41:43;;;;;;;;;28.25;25.00;;;;;9.14;100.00;100946.47;5016829;28;45269;-75
2021/11/25 03:44:08;;;;;;;;;26.50;25.50;;;;;9.15;100.00;100945.66;5017007;28;45513;-74
2021/11/25 03:46:35;;;;;;;;;25.25;24.50;;;;;9.11;100.00;100934.28;5016551;28;46313;-74
2021/11/25 03:49:02;;;;;;;;;25.00;22.25;;;;;9.11;100.00;100936.88;4998453;28;45797;-75
2021/11/25 03:51:27;;;;;;;;;26.00;24.25;;;;;9.12;100.00;100935.19;5025374;28;45405;-74
2021/11/25 03:53:54;;;;;;;;;29.75;26.75;;;;;9.10;100.00;100929.94;5015892;28;45315;-74
2021/11/25 03:56:20;;;;;;;;;25.75;24.50;;;;;9.06;100.00;100927.09;5016547;28;45329;-74
2021/11/25 03:58:45;;;;;;;;;38.50;26.50;;;;;8.95;100.00;100918.81;5017153;28;45462;-75
2021/11/25 04:01:11;;;;;;;;;37.75;30.50;;;;;8.95;100.00;100930.00;5016529;28;45431;-74
2021/11/25 04:03:38;;;;;;;;;30.50;26.75;;;;;8.79;100.00;100912.81;5016591;28;45398;-75
2021/11/25 04:06:04;;;;;;;;;27.25;24.50;;;;;8.85;100.00;100934.63;5016034;28;45813;-75
2021/11/25 04:08:30;;;;;;;;;36.25;28.75;;;;;8.67;100.00;100912.16;5015996;28;45879;-75
2021/11/25 04:10:55;;;;;;;;;32.00;26.50;;;;;8.73;100.00;100929.66;5016536;28;45314;-74
2021/11/25 04:13:21;;;;;;;;;35.75;33.25;;;;;8.71;100.00;100928.69;5016564;28;45558;-73
2021/11/25 04:15:47;;;;;;;;;37.25;32.00;;;;;8.59;100.00;100916.88;5016037;28;45638;-73
2021/11/25 04:18:12;;;;;;;;;39.25;34.75;;;;;8.63;100.00;100928.28;5015882;28;45406;-75
2021/11/25 04:20:38;;;;;;;;;38.75;33.00;;;;;8.49;100.00;100912.03;5015491;28;45422;-74
2021/11/25 04:23:05;;;;;;;;;33.25;30.25;;;;;8.54;100.00;100918.34;5016442;28;45268;-74
2021/11/25 04:25:33;;;;;;;;;39.00;34.25;;;;;8.54;100.00;100930.34;5015364;28;45521;-74
2021/11/25 04:27:59;;;;;;;;;49.50;36.50;;;;;8.54;100.00;100926.09;5015560;28;46359;-74
2021/11/25 04:30:31;;;;;;;;;38.75;33.50;;;;;8.50;100.00;100922.47;5016009;28;45508;-74
2021/11/25 04:35:42;;;;;;;;;43.25;38.00;;;;;8.50;100.00;100944.78;5015731;28;45353;-75
2021/11/25 04:38:11;;;;;;;;;40.00;34.00;;;;;8.50;100.00;100943.09;5015563;28;45466;-74
2021/11/25 04:40:40;;;;;;;;;46.75;36.50;;;;;8.44;100.00;100936.69;5018555;28;45448;-76
2021/11/25 04:43:07;;;;;;;;;35.25;30.75;;;;;8.40;100.00;100937.28;5018068;28;45506;-76
2021/11/25 04:45:35;;;;;;;;;40.75;34.50;;;;;8.38;100.00;100937.22;5015049;28;46403;-76
2021/11/25 04:48:01;;;;;;;;;42.75;37.50;;;;;8.35;100.00;100940.53;5015573;28;45388;-76
2021/11/25 04:50:28;;;;;;;;;42.00;36.25;;;;;8.36;100.00;100942.31;5015853;28;45584;-74
2021/11/25 04:52:54;;;;;;;;;44.00;36.25;;;;;8.31;100.00;100937.69;5016160;28;45276;-74
2021/11/25 04:55:19;;;;;;;;;44.75;35.75;;;;;8.25;100.00;100934.75;5022914;28;45810;-75
2021/11/25 04:57:45;;;;;;;;;51.50;38.00;;;;;8.24;100.00;100943.28;5021201;28;45314;-74
2021/11/25 05:00:12;;;;;;;;;42.75;37.75;;;;;8.19;100.00;100938.78;5015033;28;45392;-74
2021/11/25 05:02:38;;;;;;;;;44.00;34.50;;;;;8.15;100.00;100934.25;4995957;28;45332;-74
2021/11/25 05:05:05;;;;;;;;;48.75;37.00;;;;;8.15;100.00;100944.56;5007042;28;46333;-75
2021/11/25 05:07:31;;;;;;;;;45.25;37.25;;;;;8.14;100.00;100954.78;5014718;28;45479;-74
2021/11/25 05:09:57;;;;;;;;;54.25;37.75;;;;;8.12;100.00;100951.25;5015445;28;45494;-74
2021/11/25 05:12:23;;;;;;;;;53.00;39.75;;;;;8.14;100.00;100952.22;5015824;28;45246;-74
2021/11/25 05:14:48;;;;;;;;;52.75;39.50;;;;;8.10;100.00;100940.81;5014933;28;46085;-75
2021/11/25 05:17:14;;;;;;;;;46.75;37.00;;;;;8.02;100.00;100924.94;5015232;28;45435;-74
2021/11/25 05:19:39;;;;;;;;;53.75;39.25;;;;;8.02;100.00;100930.09;5014389;28;45497;-74
2021/11/25 05:22:05;;;;;;;;;44.75;35.50;;;;;8.12;100.00;100938.34;5015294;28;45609;-75
2021/11/25 05:24:31;;;;;;;;;50.50;40.75;;;;;8.15;100.00;100944.56;5014744;28;45458;-73
2021/11/25 05:26:56;;;;;;;;;49.50;40.50;;;;;8.13;100.00;100927.22;5015654;28;45399;-74
2021/11/25 05:29:22;;;;;;;;;52.00;40.75;;;;;8.19;100.00;100933.63;5014707;28;45493;-74
2021/11/25 05:31:49;;;;;;;;;49.75;38.75;;;;;8.21;100.00;100933.69;5015027;28;45570;-75
2021/11/25 05:34:17;;;;;;;;;47.50;37.50;;;;;8.24;100.00;100943.28;5014983;28;45387;-75
2021/11/25 05:36:44;;;;;;;;;55.25;41.00;;;;;8.27;100.00;100943.47;5014370;28;45236;-75
2021/11/25 05:39:10;;;;;;;;;57.25;42.50;;;;;8.25;100.00;100939.91;5014535;28;45487;-74
2021/11/25 05:41:37;;;;;;;;;52.75;38.75;;;;;8.26;100.00;100947.72;5015044;28;45458;-77
2021/11/25 05:44:04;;;;;;;;;50.00;38.00;;;;;8.24;100.00;100941.63;5015088;28;46100;-76
2021/11/25 05:46:30;;;;;;;;;47.00;39.00;;;;;8.23;100.00;100942.41;5016447;28;45401;-75
2021/11/25 05:48:55;;;;;;;;;51.25;38.75;;;;;8.24;100.00;100951.03;5032287;28;45286;-74
2021/11/25 05:51:21;;;;;;;;;52.25;40.75;;;;;8.13;100.00;100935.84;5014419;28;45315;-75
2021/11/25 05:53:47;;;;;;;;;52.50;41.00;;;;;8.16;100.00;100948.00;5017532;28;46162;-75
2021/11/25 05:56:12;;;;;;;;;51.75;40.50;;;;;8.20;100.00;100956.03;5018045;28;45408;-75
2021/11/25 05:58:38;;;;;;;;;56.50;41.50;;;;;8.19;100.00;100961.09;5018090;28;45414;-74
2021/11/25 06:01:04;;;;;;;;;44.50;37.00;;;;;8.18;100.00;100962.78;5024945;28;45311;-74
2021/11/25 06:03:29;;;;;;;;;47.25;38.25;;;;;8.15;100.00;100967.75;5020007;28;46327;-75
2021/11/25 06:05:55;;;;;;;;;55.25;44.75;;;;;8.01;100.00;100969.56;5018090;28;45407;-77
2021/11/25 06:08:21;;;;;;;;;44.75;39.75;;;;;7.93;100.00;100965.66;5018299;28;45383;-75
2021/11/25 06:10:47;;;;;;;;;52.00;38.75;;;;;7.85;100.00;100954.00;5000393;28;45507;-75
2021/11/25 06:13:13;;;;;;;;;49.75;41.50;;;;;7.88;100.00;100967.06;5017401;28;45982;-76
2021/11/25 06:15:38;;;;;;;;;54.00;41.50;;;;;7.78;100.00;100957.91;5017523;28;45382;-75
2021/11/25 06:18:04;;;;;;;;;55.75;40.75;;;;;7.82;100.00;100969.31;5017704;28;45419;-74
2021/11/25 06:20:30;;;;;;;;;49.75;41.25;;;;;7.86;100.00;100971.25;5017411;28;45487;-74
2021/11/25 06:22:55;;;;;;;;;43.00;36.25;;;;;7.79;100.00;100957.09;5016763;28;45490;-74
2021/11/25 06:25:23;;;;;;;;;34.00;33.00;;;;;7.94;100.00;100975.13;5017087;28;45367;-75
2021/11/25 06:27:49;;;;;;;;;56.50;39.75;;;;;7.95;100.00;100971.75;5016657;28;45399;-74
2021/11/25 06:30:16;;;;;;;;;51.50;40.00;;;;;7.92;100.00;100968.13;5016994;28;45531;-75
2021/11/25 06:32:44;;;;;;;;;51.00;40.75;;;;;7.73;100.00;100952.47;5016914;28;46094;-74
2021/11/25 06:35:12;;;;;;;;;52.00;41.00;;;;;7.71;100.00;100958.34;5016933;28;45482;-74
2021/11/25 06:37:40;;;;;;;;;51.75;40.25;;;;;7.76;100.00;100967.25;5017166;28;45504;-75
2021/11/25 06:40:10;;;;;;;;;54.75;40.50;;;;;7.65;100.00;100955.41;5016530;28;45437;-75
2021/11/25 06:42:35;;;;;;;;;54.50;43.75;;;;;7.61;100.00;100969.81;5016264;28;46637;-75
2021/11/25 06:45:03;;;;;;;;;56.50;40.75;;;;;7.64;100.00;100980.28;5016548;28;45489;-76
2021/11/25 06:47:38;;;;;;;;;59.25;47.25;;;;;7.58;100.00;100973.06;5000837;28;45436;-77
2021/11/25 06:50:24;;;;;;;;;59.50;44.50;;;;;7.64;100.00;100977.72;5017355;28;45336;-77
2021/11/25 06:52:50;;;;;;;;;52.75;41.25;;;;;7.66;100.00;100973.53;5015961;28;45919;-77
2021/11/25 06:55:17;;;;;;;;;52.75;42.00;;;;;7.63;100.00;100973.34;5016746;28;45442;-75
2021/11/25 06:57:48;;;;;;;;;54.50;42.00;;;;;7.64;100.00;100969.97;5016089;28;45297;-80
2021/11/25 07:00:15;;;;;;;;;53.75;43.25;;;;;7.63;100.00;100965.63;5017987;28;45329;-77
2021/11/25 07:02:43;;;;;;;;;57.50;45.00;;;;;7.72;100.00;100979.03;5018360;28;45470;-76
2021/11/25 07:05:09;;;;;;;;;53.00;41.50;;;;;7.69;100.00;100991.78;5017207;28;45358;-72
2021/11/25 07:07:36;;;;;;;;;63.50;46.25;;;;;7.66;100.00;100988.13;5017113;28;45538;-80
2021/11/25 07:10:13;;;;;;;;;52.75;41.00;;;;;7.63;100.00;101000.81;5014533;28;46363;-78
2021/11/25 07:12:54;;;;;;;;;52.00;40.25;;;;;7.62;100.00;101007.63;5001625;28;47746;-81
2021/11/25 07:15:22;;;;;;;;;57.50;45.50;;;;;7.65;100.00;101017.28;4999357;28;45939;-77
2021/11/25 07:17:48;;;;;;;;;54.50;44.00;;;;;7.63;100.00;101013.72;5016495;28;45458;-78
2021/11/25 07:20:15;;;;;;;;;54.00;43.25;;;;;7.66;100.00;101022.50;5016996;28;45545;-77
2021/11/25 07:22:42;;;;;;;;;57.50;45.50;;;;;7.68;100.00;101036.38;5016322;28;46001;-75
2021/11/25 07:25:09;;;;;;;;;54.50;44.25;;;;;7.60;100.00;101024.72;5015657;28;45770;-76
2021/11/25 07:27:36;;;;;;;;;61.25;49.50;;;;;7.65;100.00;101037.88;5017314;28;45305;-75
2021/11/25 07:30:03;;;;;;;;;55.25;42.25;;;;;7.55;100.00;101023.53;5017801;28;45543;-75
2021/11/25 07:32:29;;;;;;;;;59.00;48.25;;;;;7.67;100.00;101042.31;5016577;28;45283;-75
2021/11/25 07:34:54;;;;;;;;;62.00;47.75;;;;;7.70;100.00;101046.75;5016924;28;45341;-73
2021/11/25 07:37:20;;;;;;;;;57.50;44.75;;;;;7.72;100.00;101048.63;5015055;28;45316;-75
2021/11/25 07:39:46;;;;;;;;;60.00;48.00;;;;;7.63;100.00;101048.06;5016088;28;45510;-76
2021/11/25 07:42:11;;;;;;;;;73.00;49.50;;;;;7.59;100.00;101052.16;5015904;28;45633;-74
2021/11/25 07:44:37;;;;;;;;;58.75;46.50;;;;;7.57;100.00;101051.16;5015870;28;45430;-73
2021/11/25 07:47:03;;;;;;;;;62.00;49.00;;;;;7.56;100.00;101051.09;5016387;28;45332;-76
2021/11/25 07:49:28;;;;;;;;;60.75;45.75;;;;;7.51;100.00;101048.22;5016586;28;45474;-74
2021/11/25 07:52:00;;;;;;;;;61.50;48.25;;;;;7.50;100.00;101053.31;5015683;28;46087;-75
2021/11/25 07:54:26;;;;;;;;;60.00;44.25;;;;;7.48;100.00;101060.91;5014262;28;45939;-75
2021/11/25 07:56:52;;;;;;;;;59.25;47.00;;;;;7.40;100.00;101054.41;5017216;28;45489;-82
2021/11/25 07:59:18;;;;;;;;;61.00;46.25;;;;;7.43;100.00;101064.91;5015177;28;45665;-77
2021/11/25 08:01:44;;;;;;;;;63.00;47.00;;;;;7.44;100.00;101072.72;5016109;28;45660;-81
2021/11/25 08:04:10;;;;;;;;;60.00;45.25;;;;;7.40;100.00;101078.47;5025285;28;45337;-80
2021/11/25 08:06:36;;;;;;;;;56.25;42.25;;;;;7.36;100.00;101073.03;5023129;28;45232;-77
2021/11/25 08:09:03;;;;;;;;;57.75;48.00;;;;;7.37;100.00;101077.41;5017888;28;45771;-79
2021/11/25 08:11:28;;;;;;;;;61.25;47.00;;;;;7.30;100.00;101083.84;5020821;28;46159;-76
2021/11/25 08:13:54;;;;;;;;;61.75;45.50;;;;;7.26;100.00;101090.50;5017154;28;45526;-77
2021/11/25 08:16:20;;;;;;;;;62.00;47.00;;;;;7.27;100.00;101094.84;5015950;28;45464;-79
2021/11/25 08:18:45;;;;;;;;;61.25;45.00;;;;;7.27;100.00;101104.28;5015818;28;45295;-84
2021/11/25 08:21:13;;;;;;;;;64.25;49.75;;;;;7.26;100.00;101098.22;5016156;28;45388;-82
2021/11/25 08:23:39;;;;;;;;;49.00;36.25;;;;;7.24;100.00;101104.09;5016122;28;45774;-77
2021/11/25 08:26:06;;;;;;;;;56.50;44.50;;;;;7.20;100.00;101108.16;4998459;28;45753;-87
2021/11/25 08:28:33;;;;;;;;;57.75;43.25;;;;;7.11;100.00;101103.31;5017434;28;45779;-80
2021/11/25 08:30:58;;;;;;;;;56.75;45.50;;;;;7.02;100.00;101092.44;5016382;28;45349;-82
2021/11/25 08:33:25;;;;;;;;;61.75;44.00;;;;;7.03;100.00;101109.66;5016212;28;45218;-83
2021/11/25 08:35:51;;;;;;;;;60.25;46.75;;;;;6.99;100.00;101106.78;5015847;28;45332;-76
2021/11/25 08:38:17;;;;;;;;;58.00;46.00;;;;;6.92;100.00;101106.38;5015514;28;45321;-77
2021/11/25 08:40:43;;;;;;;;;64.25;51.25;;;;;6.98;100.00;101111.03;5015028;28;45385;-78
2021/11/25 08:43:08;;;;;;;;;58.50;48.25;;;;;6.96;100.00;101100.66;5014705;28;45490;-73
2021/11/25 08:45:34;;;;;;;;;59.75;47.00;;;;;7.07;100.00;101103.88;5015588;28;45269;-75
2021/11/25 08:48:02;;;;;;;;;60.00;48.25;;;;;7.16;100.00;101108.75;4996107;28;45471;-78
2021/11/25 08:50:30;;;;;;;;;56.25;43.00;;;;;7.23;100.00;101112.59;5016775;28;46070;-76
2021/11/25 08:52:56;;;;;;;;;65.50;52.00;;;;;7.31;100.00;101105.38;5017278;28;45810;-86
2021/11/25 08:55:22;;;;;;;;;61.25;47.00;;;;;7.37;100.00;101110.88;5018423;28;45543;-78
2021/11/25 08:57:48;;;;;;;;;62.25;47.25;;;;;7.43;100.00;101113.88;5013431;28;45408;-78
2021/11/25 09:00:15;;;;;;;;;59.25;47.50;;;;;7.46;100.00;101102.84;5015775;28;46458;-80
2021/11/25 09:02:41;;;;;;;;;63.75;48.25;;;;;7.51;100.00;101112.66;5014334;28;45796;-79
2021/11/25 09:05:10;;;;;;;;;61.75;47.50;;;;;7.51;100.00;101111.72;5016208;28;45280;-85
2021/11/25 09:07:36;;;;;;;;;63.50;49.75;;;;;7.51;100.00;101096.28;4998613;28;45373;-83
2021/11/25 09:10:05;;;;;;;;;60.75;46.50;;;;;7.59;100.00;101095.09;5015141;28;45536;-75
2021/11/25 09:12:31;;;;;;;;;58.25;47.50;;;;;7.64;100.00;101097.94;4997311;28;45747;-80
2021/11/25 09:14:56;;;;;;;;;65.50;51.50;;;;;7.63;100.00;101094.47;5015492;28;45447;-82
2021/11/25 09:17:22;;;;;;;;;59.25;46.00;;;;;7.67;100.00;101103.25;5016402;28;45754;-80
2021/11/25 09:19:48;;;;;;;;;61.75;47.75;;;;;7.71;100.00;101098.41;5014693;28;46455;-77
2021/11/25 09:22:15;;;;;;;;;64.50;48.50;;;;;7.77;100.00;101091.84;5017500;28;45428;-78
2021/11/25 09:24:41;;;;;;;;;66.75;50.25;;;;;7.78;100.00;101091.91;5018905;28;45462;-80
2021/11/25 09:27:07;;;;;;;;;61.50;46.00;;;;;7.78;100.00;101099.66;5018445;28;45609;-77
2021/11/25 09:29:33;;;;;;;;;63.00;48.50;;;;;7.69;100.00;101084.53;5021795;28;46073;-78
2021/11/25 09:31:59;;;;;;;;;64.25;48.75;;;;;7.75;100.00;101092.63;5018206;28;45356;-79
2021/11/25 09:34:25;;;;;;;;;62.50;48.75;;;;;7.75;100.00;101091.75;5020556;28;45304;-75
2021/11/25 09:36:51;;;;;;;;;63.00;48.75;;;;;7.75;100.00;101091.75;5020442;28;45403;-74
2021/11/25 09:39:17;;;;;;;;;70.50;51.50;;;;;7.79;100.00;101090.25;5018943;28;45807;-79
2021/11/25 09:41:43;;;;;;;;;65.25;50.75;;;;;7.83;100.00;101081.91;5018145;28;45236;-76
2021/11/25 09:44:09;;;;;;;;;66.00;50.00;;;;;7.92;100.00;101079.88;5017440;28;45426;-78
2021/11/25 09:46:36;;;;;;;;;66.50;51.50;;;;;7.94;100.00;101086.00;5018452;28;45752;-78
2021/11/25 09:49:03;;;;;;;;;65.25;50.75;;;;;7.92;100.00;101090.19;5018997;28;45974;-76
2021/11/25 09:51:29;;;;;;;;;66.25;51.50;;;;;7.93;100.00;101081.66;5039190;28;46132;-77
2021/11/25 09:53:55;;;;;;;;;67.00;49.25;;;;;7.99;100.00;101094.91;5017180;28;45436;-74
2021/11/25 09:56:21;;;;;;;;;58.75;49.25;;;;;8.06;100.00;101094.47;5018277;28;45411;-78
2021/11/25 09:58:50;;;;;;;;;67.50;50.25;;;;;8.12;100.00;101085.34;5017642;28;45529;-76
2021/11/25 10:01:21;;;;;;;;;65.00;50.25;;;;;8.17;100.00;101100.28;5018068;28;45940;-76
2021/11/25 10:03:50;;;;;;;;;67.25;51.75;;;;;8.20;100.00;101090.16;5017344;28;45165;-75
2021/11/25 10:06:18;;;;;;;;;65.50;50.75;;;;;8.31;100.00;101103.66;5017311;28;45404;-76
2021/11/25 10:08:49;;;;;;;;;64.75;51.25;;;;;8.36;100.00;101099.69;5017133;28;46122;-77
2021/11/25 10:11:18;;;;;;;;;58.00;45.00;;;;;8.39;100.00;101106.69;5017727;28;45467;-79
2021/11/25 10:13:57;;;;;;;;;69.50;51.00;;;;;8.35;100.00;101115.97;4999698;28;45396;-76
2021/11/25 10:16:32;;;;;;;;;62.25;47.00;;;;;8.36;100.00;101099.69;4980437;28;45512;-76
2021/11/25 10:19:09;;;;;;;;;60.50;47.75;;;;;8.37;100.00;101101.44;4984690;28;46790;-75
2021/11/25 10:21:40;;;;;;;;;58.75;47.00;;;;;8.36;100.00;101098.78;5024158;28;46011;-77
2021/11/25 10:24:10;;;;;;;;;64.00;49.50;;;;;8.41;100.00;101110.28;5017436;28;45398;-74
2021/11/25 10:26:36;;;;;;;;;55.25;43.00;;;;;8.43;100.00;101100.03;5019868;28;45595;-78
2021/11/25 10:29:08;;;;;;;;;62.00;47.00;;;;;8.39;100.00;101088.66;5015085;28;45553;-79
2021/11/25 10:31:37;;;;;;;;;62.50;48.00;;;;;8.51;100.00;101098.81;5018026;28;45403;-76
2021/11/25 10:34:19;;;;;;;;;63.25;49.50;;;;;8.45;100.00;101083.81;5022804;28;45676;-77
2021/11/25 10:37:04;;;;;;;;;67.00;50.50;;;;;8.55;100.00;101095.59;5014917;28;45446;-78
2021/11/25 10:39:46;;;;;;;;;66.25;50.25;;;;;8.58;100.00;101090.63;5015552;28;46480;-77
2021/11/25 10:42:13;;;;;;;;;60.75;48.25;;;;;8.54;100.00;101082.59;5013168;28;45936;-77
2021/11/25 10:44:47;;;;;;;;;63.00;47.75;;;;;8.57;100.00;101086.28;5016969;28;45575;-79
2021/11/25 10:47:16;;;;;;;;;61.25;46.25;;;;;8.47;100.00;101064.19;5016022;28;45257;-77
2021/11/25 10:49:54;;;;;;;;;63.25;50.75;;;;;8.51;100.00;101075.56;5017947;28;45489;-82
2021/11/25 10:52:37;;;;;;;;;65.75;49.50;;;;;8.53;100.00;101073.97;5012738;28;45898;-82
2021/11/25 10:55:05;;;;;;;;;61.00;48.25;;;;;8.58;100.00;101070.00;5012506;28;45400;-79
2021/11/25 10:57:42;;;;;;;;;64.50;48.25;;;;;8.60;100.00;101060.63;5024830;28;45399;-77
2021/11/25 11:00:12;;;;;;;;;63.75;49.50;;;;;8.63;100.00;101057.34;5036822;28;45701;-75
2021/11/25 11:02:38;;;;;;;;;58.50;44.00;;;;;8.64;100.00;101059.09;5018787;28;45978;-75
2021/11/25 11:05:10;;;;;;;;;64.50;45.50;;;;;8.61;100.00;101059.81;5000018;28;45540;-78
2021/11/25 11:07:38;;;;;;;;;57.75;45.25;;;;;8.63;100.00;101053.06;5020047;28;45187;-76
2021/11/25 11:10:28;;;;;;;;;59.50;44.75;;;;;8.66;100.00;101060.97;5016700;28;46123;-80
2021/11/25 11:13:25;;;;;;;;;66.25;50.00;;;;;8.58;100.00;101064.81;5013858;28;45896;-83
2021/11/25 11:15:56;;;;;;;;;58.50;46.00;;;;;8.52;100.00;101062.78;5016570;28;45271;-77